Terminal Aerodrome Forecast
Issued by NWS Wilmington, NC

Current Version | Previous Version | Text Only | Print | Product List | Glossary On
Versions: 1 2 3 4 5 6 7 8 9 10 11 12 13 14 15
000
FTUS42 KILM 271100
TAFILM
TAF
KILM 271120Z 2712/2812 02006KT P6SM SKC
     FM271400 36010G15KT P6SM SKC
     FM272000 36009KT P6SM SKC
     FM280000 VRB03KT P6SM SKC=

USA.gov is the U.S. government's official web portal to all federal, state and local government web resources and services.